South Mills, NC (27976)

10:27 PM EDT on August 29, 2014 (GMT -0400)
Chesapeake Regional | Change Station
CLOSE
Current Station
Airport
Location: Chesapeake,
Elevation: 20 ft
Nearby Weather Stations

Elev 20 ft 36.67 °N, 76.32 °W | Updated 12 minutes ago

Overcast
Overcast
73 °F
Feels Like 73 °F
N
0
Wind Variable Wind from North

Today
High -- | Low -- °F
--% Chance of Precip.
Yesterday
High -- | Low -- °F
Precip. -- in
6:34 AM 7:37 PM
Waxing Crescent, 18% visible
Pressure 30.21 in
Visibility 10.0 miles
Clouds Overcast 4200 ft
Dew Point 64 °F
Humidity 73%
Rainfall 0.00 in
Snow Depth Not available.
UV 0 out of 12
Pollen 9.60 out of 12
Air Quality Not available.
Flu Activity Not available.
METAR KCPK 300215Z AUTO 00000KT 10SM OVC042 23/18 A3021 RMK AO2

More Conditions Fewer Conditions

Pressure 30.21 in
Visibility 10.0 miles
Clouds Overcast 4200 ft
Dew Point 64 °F
Humidity 73%
Rainfall 0.00 in
Snow Depth Not available.
UV 0 out of 12
Pollen 9.60 out of 12
Air Quality Not available.
Flu Activity Not available.
METAR KCPK 300215Z AUTO 00000KT 10SM OVC042 23/18 A3021 RMK AO2

More Conditions Fewer Conditions

10-Day Weather Forecast

Almanac

Astronomy

Aug. 29, 2014 Rise Set
Actual Time 6:34 AM EDT 7:37 PM EDT
Civil Twilight 6:07 AM EDT 8:04 PM EDT
Nautical Twilight 5:36 AM EDT 8:35 PM EDT
Astronomical Twilight 5:03 AM EDT 9:08 PM EDT
Moon 10:14 AM EDT (8/29) 9:42 PM EDT (8/29)
Length of Visible Light 13h 56m
Length of Day
13h 03m
Tomorrow will be 2m 12s shorter.
Waxing Crescent, 18% of the Moon is Illuminated
Today
Waxing Crescent
Sep 2
First Quarter
Sep 8
Full
Sep 15
Last Quarter
Sep 24
New

Today's Extremes

State Highs State Lows

Community

WunderPhotos

Upload Photos

1,748,412 photos uploaded!

Nearby

Snow Depth

Station Depth Elevation
No new snow has been reported.

Earthquake Activity

City Distance Mag. Time & Date
No recent earthquake activity has been reported nearby.
Minimum magnitude displayed is 2.5.

Coastal Water Temperatures

Place Temperature
Duck Pier, NC 78.1 °F
Oregon Inlet Marina, NC 79.0 °F
Money Point, VA 84.9 °F
Sewells Point, VA 79.0 °F
Chesapeake Bay Bridge Tunnel, VA 78.1 °F

Nearby Weather Stations